sensor_id;sensor_type;location;lat;lon;timestamp;temperature;humidity
68354;DHT22;55274;43.060;25.618;2023-07-31T00:00:28;25.40;68.50
68354;DHT22;55274;43.060;25.618;2023-07-31T00:02:54;25.30;68.80
68354;DHT22;55274;43.060;25.618;2023-07-31T00:05:20;25.30;68.80
68354;DHT22;55274;43.060;25.618;2023-07-31T00:07:46;25.40;69.00
68354;DHT22;55274;43.060;25.618;2023-07-31T00:10:12;25.40;69.10
68354;DHT22;55274;43.060;25.618;2023-07-31T00:12:40;25.40;69.60
68354;DHT22;55274;43.060;25.618;2023-07-31T00:15:07;25.40;69.10
68354;DHT22;55274;43.060;25.618;2023-07-31T00:17:33;25.40;69.30
68354;DHT22;55274;43.060;25.618;2023-07-31T00:19:59;25.40;69.50
68354;DHT22;55274;43.060;25.618;2023-07-31T00:22:25;25.40;70.00
68354;DHT22;55274;43.060;25.618;2023-07-31T00:24:51;25.40;70.80
68354;DHT22;55274;43.060;25.618;2023-07-31T00:27:17;25.30;71.40
68354;DHT22;55274;43.060;25.618;2023-07-31T00:29:42;25.30;71.30
68354;DHT22;55274;43.060;25.618;2023-07-31T00:32:08;25.30;71.30
68354;DHT22;55274;43.060;25.618;2023-07-31T00:34:34;25.30;71.50
68354;DHT22;55274;43.060;25.618;2023-07-31T00:37:00;25.30;71.50
68354;DHT22;55274;43.060;25.618;2023-07-31T00:39:25;25.30;71.90
68354;DHT22;55274;43.060;25.618;2023-07-31T00:41:51;25.30;72.30
68354;DHT22;55274;43.060;25.618;2023-07-31T00:44:17;25.30;73.10
68354;DHT22;55274;43.060;25.618;2023-07-31T00:46:43;25.10;74.10
68354;DHT22;55274;43.060;25.618;2023-07-31T00:49:09;25.10;74.60
68354;DHT22;55274;43.060;25.618;2023-07-31T00:51:35;25.10;74.50
68354;DHT22;55274;43.060;25.618;2023-07-31T00:54:01;25.10;74.40
68354;DHT22;55274;43.060;25.618;2023-07-31T00:56:27;25.10;74.00
68354;DHT22;55274;43.060;25.618;2023-07-31T00:58:55;25.10;74.30
68354;DHT22;55274;43.060;25.618;2023-07-31T01:01:20;25.10;74.80
68354;DHT22;55274;43.060;25.618;2023-07-31T01:03:47;25.10;75.00
68354;DHT22;55274;43.060;25.618;2023-07-31T01:06:35;25.00;76.00
68354;DHT22;55274;43.060;25.618;2023-07-31T01:09:20;25.00;76.20
68354;DHT22;55274;43.060;25.618;2023-07-31T01:11:57;24.90;76.40
68354;DHT22;55274;43.060;25.618;2023-07-31T01:14:23;24.90;76.20
68354;DHT22;55274;43.060;25.618;2023-07-31T01:16:49;24.80;76.40
68354;DHT22;55274;43.060;25.618;2023-07-31T01:19:15;24.80;75.90
68354;DHT22;55274;43.060;25.618;2023-07-31T01:25:17;24.80;76.40
68354;DHT22;55274;43.060;25.618;2023-07-31T01:27:53;24.70;77.50
68354;DHT22;55274;43.060;25.618;2023-07-31T01:30:27;24.70;78.10
68354;DHT22;55274;43.060;25.618;2023-07-31T01:32:54;24.50;78.60
68354;DHT22;55274;43.060;25.618;2023-07-31T01:35:21;24.50;78.70
68354;DHT22;55274;43.060;25.618;2023-07-31T01:37:47;24.50;78.40
68354;DHT22;55274;43.060;25.618;2023-07-31T01:40:13;24.50;79.00
68354;DHT22;55274;43.060;25.618;2023-07-31T01:42:39;24.50;78.70
68354;DHT22;55274;43.060;25.618;2023-07-31T01:45:05;24.50;78.60
68354;DHT22;55274;43.060;25.618;2023-07-31T01:47:31;24.50;78.60
68354;DHT22;55274;43.060;25.618;2023-07-31T01:49:57;24.50;78.40
68354;DHT22;55274;43.060;25.618;2023-07-31T01:52:22;24.60;78.10
68354;DHT22;55274;43.060;25.618;2023-07-31T01:54:48;24.60;79.40
68354;DHT22;55274;43.060;25.618;2023-07-31T01:57:14;24.60;80.20
68354;DHT22;55274;43.060;25.618;2023-07-31T01:59:39;24.50;81.70
68354;DHT22;55274;43.060;25.618;2023-07-31T02:02:05;24.40;83.30
68354;DHT22;55274;43.060;25.618;2023-07-31T02:04:31;24.30;83.30
68354;DHT22;55274;43.060;25.618;2023-07-31T02:06:57;24.30;83.80
68354;DHT22;55274;43.060;25.618;2023-07-31T02:09:23;24.40;83.40
68354;DHT22;55274;43.060;25.618;2023-07-31T02:11:48;24.30;83.80
68354;DHT22;55274;43.060;25.618;2023-07-31T02:14:14;24.30;85.60
68354;DHT22;55274;43.060;25.618;2023-07-31T02:16:40;24.30;84.90
68354;DHT22;55274;43.060;25.618;2023-07-31T02:19:08;24.30;85.70
68354;DHT22;55274;43.060;25.618;2023-07-31T02:21:33;24.20;86.10
68354;DHT22;55274;43.060;25.618;2023-07-31T02:23:59;24.10;86.60
68354;DHT22;55274;43.060;25.618;2023-07-31T02:26:25;24.10;86.10
68354;DHT22;55274;43.060;25.618;2023-07-31T02:28:51;24.10;86.20
68354;DHT22;55274;43.060;25.618;2023-07-31T02:31:16;24.00;85.80
68354;DHT22;55274;43.060;25.618;2023-07-31T02:33:42;24.10;87.80
68354;DHT22;55274;43.060;25.618;2023-07-31T02:36:08;24.00;88.60
68354;DHT22;55274;43.060;25.618;2023-07-31T02:38:34;23.90;88.70
68354;DHT22;55274;43.060;25.618;2023-07-31T02:40:59;23.90;89.50
68354;DHT22;55274;43.060;25.618;2023-07-31T02:43:25;23.80;90.20
68354;DHT22;55274;43.060;25.618;2023-07-31T02:45:52;23.80;90.40
68354;DHT22;55274;43.060;25.618;2023-07-31T02:48:18;23.80;91.00
68354;DHT22;55274;43.060;25.618;2023-07-31T02:50:45;23.70;91.10
68354;DHT22;55274;43.060;25.618;2023-07-31T02:53:10;23.70;92.00
68354;DHT22;55274;43.060;25.618;2023-07-31T02:55:36;23.70;92.50
68354;DHT22;55274;43.060;25.618;2023-07-31T02:58:02;23.70;92.90
68354;DHT22;55274;43.060;25.618;2023-07-31T03:00:28;23.70;93.00
68354;DHT22;55274;43.060;25.618;2023-07-31T03:02:53;23.70;93.20
68354;DHT22;55274;43.060;25.618;2023-07-31T03:05:19;23.70;93.30
68354;DHT22;55274;43.060;25.618;2023-07-31T03:07:45;23.70;93.30
68354;DHT22;55274;43.060;25.618;2023-07-31T03:10:11;23.70;94.10
68354;DHT22;55274;43.060;25.618;2023-07-31T03:12:36;23.70;94.50
68354;DHT22;55274;43.060;25.618;2023-07-31T03:15:03;23.60;95.00
68354;DHT22;55274;43.060;25.618;2023-07-31T03:17:29;23.60;95.10
68354;DHT22;55274;43.060;25.618;2023-07-31T03:19:54;23.60;95.40
68354;DHT22;55274;43.060;25.618;2023-07-31T03:22:20;23.60;95.70
68354;DHT22;55274;43.060;25.618;2023-07-31T03:24:46;23.50;95.40
68354;DHT22;55274;43.060;25.618;2023-07-31T03:27:11;23.40;96.00
68354;DHT22;55274;43.060;25.618;2023-07-31T03:29:37;23.50;96.70
68354;DHT22;55274;43.060;25.618;2023-07-31T03:32:03;23.50;97.20
68354;DHT22;55274;43.060;25.618;2023-07-31T03:34:29;23.40;97.30
68354;DHT22;55274;43.060;25.618;2023-07-31T03:36:57;23.40;97.30
68354;DHT22;55274;43.060;25.618;2023-07-31T03:39:23;23.50;98.30
68354;DHT22;55274;43.060;25.618;2023-07-31T03:41:49;23.50;98.40
68354;DHT22;55274;43.060;25.618;2023-07-31T03:44:15;23.50;98.40
68354;DHT22;55274;43.060;25.618;2023-07-31T03:46:40;23.50;97.90
68354;DHT22;55274;43.060;25.618;2023-07-31T03:49:06;23.50;98.70
68354;DHT22;55274;43.060;25.618;2023-07-31T03:51:32;23.50;99.30
68354;DHT22;55274;43.060;25.618;2023-07-31T03:53:58;23.50;99.30
68354;DHT22;55274;43.060;25.618;2023-07-31T03:56:23;23.50;99.80
68354;DHT22;55274;43.060;25.618;2023-07-31T03:58:49;23.50;99.70
68354;DHT22;55274;43.060;25.618;2023-07-31T04:01:15;23.50;99.90
68354;DHT22;55274;43.060;25.618;2023-07-31T04:03:41;23.50;99.90
68354;DHT22;55274;43.060;25.618;2023-07-31T04:06:06;23.50;99.90
68354;DHT22;55274;43.060;25.618;2023-07-31T04:08:33;23.40;99.70
68354;DHT22;55274;43.060;25.618;2023-07-31T04:10:58;23.50;99.90
68354;DHT22;55274;43.060;25.618;2023-07-31T04:13:24;23.40;99.90
68354;DHT22;55274;43.060;25.618;2023-07-31T04:15:53;23.50;99.90
68354;DHT22;55274;43.060;25.618;2023-07-31T04:18:20;23.50;99.90
68354;DHT22;55274;43.060;25.618;2023-07-31T04:20:45;23.60;99.90
68354;DHT22;55274;43.060;25.618;2023-07-31T04:23:11;23.60;99.90
68354;DHT22;55274;43.060;25.618;2023-07-31T04:25:37;23.60;99.90
68354;DHT22;55274;43.060;25.618;2023-07-31T04:28:03;23.60;99.90
68354;DHT22;55274;43.060;25.618;2023-07-31T04:30:29;23.60;99.90
68354;DHT22;55274;43.060;25.618;2023-07-31T04:32:54;23.70;99.90
68354;DHT22;55274;43.060;25.618;2023-07-31T04:35:20;23.70;99.90
68354;DHT22;55274;43.060;25.618;2023-07-31T04:37:46;23.70;99.90
68354;DHT22;55274;43.060;25.618;2023-07-31T04:40:15;23.70;99.90
68354;DHT22;55274;43.060;25.618;2023-07-31T04:42:41;23.80;99.90
68354;DHT22;55274;43.060;25.618;2023-07-31T04:45:08;23.80;99.90
68354;DHT22;55274;43.060;25.618;2023-07-31T04:47:34;23.80;99.90
68354;DHT22;55274;43.060;25.618;2023-07-31T04:50:00;23.80;99.90
68354;DHT22;55274;43.060;25.618;2023-07-31T04:52:25;23.80;99.90
68354;DHT22;55274;43.060;25.618;2023-07-31T04:54:51;23.80;99.90
68354;DHT22;55274;43.060;25.618;2023-07-31T04:57:17;23.80;99.90
68354;DHT22;55274;43.060;25.618;2023-07-31T04:59:43;23.80;99.90
68354;DHT22;55274;43.060;25.618;2023-07-31T05:02:08;23.80;99.90
68354;DHT22;55274;43.060;25.618;2023-07-31T05:04:34;23.80;99.90
68354;DHT22;55274;43.060;25.618;2023-07-31T05:07:00;23.80;99.90
68354;DHT22;55274;43.060;25.618;2023-07-31T05:09:26;23.80;99.90
68354;DHT22;55274;43.060;25.618;2023-07-31T05:11:51;23.80;99.90
68354;DHT22;55274;43.060;25.618;2023-07-31T05:14:17;23.70;99.90
68354;DHT22;55274;43.060;25.618;2023-07-31T05:16:43;23.80;99.90
68354;DHT22;55274;43.060;25.618;2023-07-31T05:19:09;23.80;99.90
68354;DHT22;55274;43.060;25.618;2023-07-31T05:21:34;23.90;99.90
68354;DHT22;55274;43.060;25.618;2023-07-31T05:24:00;23.90;99.90
68354;DHT22;55274;43.060;25.618;2023-07-31T05:26:26;23.90;99.90
68354;DHT22;55274;43.060;25.618;2023-07-31T05:28:52;23.90;99.90
68354;DHT22;55274;43.060;25.618;2023-07-31T05:31:17;23.90;99.90
68354;DHT22;55274;43.060;25.618;2023-07-31T05:33:44;24.00;99.90
68354;DHT22;55274;43.060;25.618;2023-07-31T05:36:09;24.00;99.90
68354;DHT22;55274;43.060;25.618;2023-07-31T05:38:35;24.00;99.90
68354;DHT22;55274;43.060;25.618;2023-07-31T05:41:01;24.00;99.90
68354;DHT22;55274;43.060;25.618;2023-07-31T05:43:27;24.10;99.90
68354;DHT22;55274;43.060;25.618;2023-07-31T05:45:53;24.10;99.90
68354;DHT22;55274;43.060;25.618;2023-07-31T05:48:18;24.10;99.90
68354;DHT22;55274;43.060;25.618;2023-07-31T05:50:44;24.10;99.90
68354;DHT22;55274;43.060;25.618;2023-07-31T05:53:10;24.10;99.90
68354;DHT22;55274;43.060;25.618;2023-07-31T05:55:36;24.20;99.90
68354;DHT22;55274;43.060;25.618;2023-07-31T05:58:02;24.20;99.90
68354;DHT22;55274;43.060;25.618;2023-07-31T06:00:28;24.40;99.90
68354;DHT22;55274;43.060;25.618;2023-07-31T06:02:54;24.40;99.90
68354;DHT22;55274;43.060;25.618;2023-07-31T06:05:19;24.60;99.90
68354;DHT22;55274;43.060;25.618;2023-07-31T06:07:46;24.60;99.90
68354;DHT22;55274;43.060;25.618;2023-07-31T06:10:11;24.70;99.90
68354;DHT22;55274;43.060;25.618;2023-07-31T06:12:37;24.80;99.90
68354;DHT22;55274;43.060;25.618;2023-07-31T06:15:03;24.80;99.90
68354;DHT22;55274;43.060;25.618;2023-07-31T06:17:30;24.80;99.90
68354;DHT22;55274;43.060;25.618;2023-07-31T06:19:56;24.80;99.10
68354;DHT22;55274;43.060;25.618;2023-07-31T06:22:22;24.80;99.10
68354;DHT22;55274;43.060;25.618;2023-07-31T06:24:48;24.80;99.60
68354;DHT22;55274;43.060;25.618;2023-07-31T06:27:14;24.70;99.30
68354;DHT22;55274;43.060;25.618;2023-07-31T06:29:40;24.80;99.00
68354;DHT22;55274;43.060;25.618;2023-07-31T06:32:06;24.80;99.60
68354;DHT22;55274;43.060;25.618;2023-07-31T06:34:32;24.70;99.70
68354;DHT22;55274;43.060;25.618;2023-07-31T06:36:58;24.70;99.10
68354;DHT22;55274;43.060;25.618;2023-07-31T06:39:24;24.70;97.40
68354;DHT22;55274;43.060;25.618;2023-07-31T06:41:49;24.70;97.30
68354;DHT22;55274;43.060;25.618;2023-07-31T06:44:16;24.80;98.20
68354;DHT22;55274;43.060;25.618;2023-07-31T06:46:42;24.90;97.00
68354;DHT22;55274;43.060;25.618;2023-07-31T06:49:08;25.00;96.10
68354;DHT22;55274;43.060;25.618;2023-07-31T06:51:34;25.10;95.50
68354;DHT22;55274;43.060;25.618;2023-07-31T06:54:01;25.10;95.70
68354;DHT22;55274;43.060;25.618;2023-07-31T06:56:27;25.10;94.00
68354;DHT22;55274;43.060;25.618;2023-07-31T06:58:53;25.00;92.00
68354;DHT22;55274;43.060;25.618;2023-07-31T07:01:18;25.00;92.30
68354;DHT22;55274;43.060;25.618;2023-07-31T07:03:44;24.90;92.40
68354;DHT22;55274;43.060;25.618;2023-07-31T07:06:10;24.90;92.10
68354;DHT22;55274;43.060;25.618;2023-07-31T07:08:36;24.80;91.60
68354;DHT22;55274;43.060;25.618;2023-07-31T07:11:02;24.80;91.60
68354;DHT22;55274;43.060;25.618;2023-07-31T07:13:27;24.70;92.10
68354;DHT22;55274;43.060;25.618;2023-07-31T07:15:53;24.80;92.20
68354;DHT22;55274;43.060;25.618;2023-07-31T07:18:19;25.00;92.40
68354;DHT22;55274;43.060;25.618;2023-07-31T07:20:53;25.00;91.10
68354;DHT22;55274;43.060;25.618;2023-07-31T07:23:20;25.10;92.40
68354;DHT22;55274;43.060;25.618;2023-07-31T07:25:46;25.10;91.30
68354;DHT22;55274;43.060;25.618;2023-07-31T07:28:13;25.10;89.40
68354;DHT22;55274;43.060;25.618;2023-07-31T07:30:39;25.20;88.70
68354;DHT22;55274;43.060;25.618;2023-07-31T07:33:05;25.20;88.50
68354;DHT22;55274;43.060;25.618;2023-07-31T07:35:33;25.30;89.20
68354;DHT22;55274;43.060;25.618;2023-07-31T07:38:01;25.50;89.20
68354;DHT22;55274;43.060;25.618;2023-07-31T07:40:26;25.60;88.60
68354;DHT22;55274;43.060;25.618;2023-07-31T07:42:52;25.70;88.50
68354;DHT22;55274;43.060;25.618;2023-07-31T07:45:18;25.90;86.20
68354;DHT22;55274;43.060;25.618;2023-07-31T07:47:44;26.20;85.00
68354;DHT22;55274;43.060;25.618;2023-07-31T07:50:10;26.20;83.60
68354;DHT22;55274;43.060;25.618;2023-07-31T07:52:35;26.40;82.00
68354;DHT22;55274;43.060;25.618;2023-07-31T07:55:01;26.80;79.90
68354;DHT22;55274;43.060;25.618;2023-07-31T07:57:29;27.00;78.50
68354;DHT22;55274;43.060;25.618;2023-07-31T07:59:54;27.30;77.30
68354;DHT22;55274;43.060;25.618;2023-07-31T08:02:21;27.50;76.90
68354;DHT22;55274;43.060;25.618;2023-07-31T08:04:47;27.60;76.10
68354;DHT22;55274;43.060;25.618;2023-07-31T08:07:13;27.80;74.60
68354;DHT22;55274;43.060;25.618;2023-07-31T08:09:39;27.60;74.50
68354;DHT22;55274;43.060;25.618;2023-07-31T08:12:05;27.40;75.00
68354;DHT22;55274;43.060;25.618;2023-07-31T08:14:31;27.50;75.20
68354;DHT22;55274;43.060;25.618;2023-07-31T08:16:57;27.40;75.40
68354;DHT22;55274;43.060;25.618;2023-07-31T08:19:23;27.20;75.70
68354;DHT22;55274;43.060;25.618;2023-07-31T08:21:49;27.30;76.10
68354;DHT22;55274;43.060;25.618;2023-07-31T08:24:15;27.20;75.40
68354;DHT22;55274;43.060;25.618;2023-07-31T08:26:41;27.30;74.80
68354;DHT22;55274;43.060;25.618;2023-07-31T08:29:06;27.30;74.60
68354;DHT22;55274;43.060;25.618;2023-07-31T08:31:32;27.50;74.50
68354;DHT22;55274;43.060;25.618;2023-07-31T08:33:58;27.60;73.60
68354;DHT22;55274;43.060;25.618;2023-07-31T08:36:24;27.80;72.40
68354;DHT22;55274;43.060;25.618;2023-07-31T08:38:49;27.70;72.20
68354;DHT22;55274;43.060;25.618;2023-07-31T08:41:16;27.70;72.30
68354;DHT22;55274;43.060;25.618;2023-07-31T08:43:46;27.90;72.90
68354;DHT22;55274;43.060;25.618;2023-07-31T08:46:12;27.80;72.60
68354;DHT22;55274;43.060;25.618;2023-07-31T08:48:41;27.80;72.10
68354;DHT22;55274;43.060;25.618;2023-07-31T08:51:08;28.00;72.80
68354;DHT22;55274;43.060;25.618;2023-07-31T08:53:33;28.30;72.20
68354;DHT22;55274;43.060;25.618;2023-07-31T08:56:00;28.60;70.00
68354;DHT22;55274;43.060;25.618;2023-07-31T08:58:28;28.90;69.70
68354;DHT22;55274;43.060;25.618;2023-07-31T09:00:57;28.90;68.30
68354;DHT22;55274;43.060;25.618;2023-07-31T09:03:25;29.20;68.10
68354;DHT22;55274;43.060;25.618;2023-07-31T09:05:52;29.50;66.40
68354;DHT22;55274;43.060;25.618;2023-07-31T09:08:21;29.80;65.60
68354;DHT22;55274;43.060;25.618;2023-07-31T09:10:47;30.30;65.00
68354;DHT22;55274;43.060;25.618;2023-07-31T09:13:16;30.30;62.60
68354;DHT22;55274;43.060;25.618;2023-07-31T09:15:45;30.30;62.10
68354;DHT22;55274;43.060;25.618;2023-07-31T09:18:12;30.50;61.90
68354;DHT22;55274;43.060;25.618;2023-07-31T09:20:38;30.90;60.80
68354;DHT22;55274;43.060;25.618;2023-07-31T09:23:11;31.00;58.80
68354;DHT22;55274;43.060;25.618;2023-07-31T09:25:38;31.00;59.00
68354;DHT22;55274;43.060;25.618;2023-07-31T09:28:07;30.70;59.10
68354;DHT22;55274;43.060;25.618;2023-07-31T09:30:50;30.50;60.30
68354;DHT22;55274;43.060;25.618;2023-07-31T09:33:16;30.20;61.10
68354;DHT22;55274;43.060;25.618;2023-07-31T09:35:42;30.20;61.10
68354;DHT22;55274;43.060;25.618;2023-07-31T09:38:13;30.60;60.20
68354;DHT22;55274;43.060;25.618;2023-07-31T09:40:41;30.60;59.40
68354;DHT22;55274;43.060;25.618;2023-07-31T09:43:08;30.60;59.50
68354;DHT22;55274;43.060;25.618;2023-07-31T09:45:37;31.20;59.30
68354;DHT22;55274;43.060;25.618;2023-07-31T09:48:06;31.60;56.60
68354;DHT22;55274;43.060;25.618;2023-07-31T09:50:32;31.80;56.40
68354;DHT22;55274;43.060;25.618;2023-07-31T09:52:58;32.50;54.90
68354;DHT22;55274;43.060;25.618;2023-07-31T09:55:24;32.90;54.40
68354;DHT22;55274;43.060;25.618;2023-07-31T09:57:50;33.20;53.10
68354;DHT22;55274;43.060;25.618;2023-07-31T10:00:18;33.50;53.00
68354;DHT22;55274;43.060;25.618;2023-07-31T10:02:47;33.40;53.10
68354;DHT22;55274;43.060;25.618;2023-07-31T10:05:15;33.00;53.30
68354;DHT22;55274;43.060;25.618;2023-07-31T10:07:43;32.70;53.20
68354;DHT22;55274;43.060;25.618;2023-07-31T10:10:11;32.80;53.00
68354;DHT22;55274;43.060;25.618;2023-07-31T10:12:39;32.50;53.70
68354;DHT22;55274;43.060;25.618;2023-07-31T10:15:05;33.10;53.20
68354;DHT22;55274;43.060;25.618;2023-07-31T10:17:33;33.50;52.10
68354;DHT22;55274;43.060;25.618;2023-07-31T10:20:02;33.30;51.60
68354;DHT22;55274;43.060;25.618;2023-07-31T10:22:30;33.00;52.40
68354;DHT22;55274;43.060;25.618;2023-07-31T10:25:01;32.80;53.10
68354;DHT22;55274;43.060;25.618;2023-07-31T10:27:27;32.60;54.30
68354;DHT22;55274;43.060;25.618;2023-07-31T10:29:55;32.30;54.10
68354;DHT22;55274;43.060;25.618;2023-07-31T10:32:22;32.30;53.90
68354;DHT22;55274;43.060;25.618;2023-07-31T10:34:50;32.70;53.30
68354;DHT22;55274;43.060;25.618;2023-07-31T10:37:23;33.00;52.50
68354;DHT22;55274;43.060;25.618;2023-07-31T10:42:49;33.50;50.90
68354;DHT22;55274;43.060;25.618;2023-07-31T10:47:59;33.10;52.70
68354;DHT22;55274;43.060;25.618;2023-07-31T10:50:26;32.80;51.60
68354;DHT22;55274;43.060;25.618;2023-07-31T10:52:56;32.50;52.40
68354;DHT22;55274;43.060;25.618;2023-07-31T10:55:32;32.50;52.60
68354;DHT22;55274;43.060;25.618;2023-07-31T10:58:12;32.40;53.70
68354;DHT22;55274;43.060;25.618;2023-07-31T11:00:40;32.20;53.80
68354;DHT22;55274;43.060;25.618;2023-07-31T11:03:19;31.90;53.80
68354;DHT22;55274;43.060;25.618;2023-07-31T11:08:24;31.80;54.90
68354;DHT22;55274;43.060;25.618;2023-07-31T11:13:50;31.80;54.30
68354;DHT22;55274;43.060;25.618;2023-07-31T11:16:19;31.90;54.10
68354;DHT22;55274;43.060;25.618;2023-07-31T11:18:47;31.70;54.20
68354;DHT22;55274;43.060;25.618;2023-07-31T11:21:24;31.60;54.20
68354;DHT22;55274;43.060;25.618;2023-07-31T11:23:57;31.70;54.30
68354;DHT22;55274;43.060;25.618;2023-07-31T11:26:24;31.70;54.40
68354;DHT22;55274;43.060;25.618;2023-07-31T11:28:50;31.60;54.80
68354;DHT22;55274;43.060;25.618;2023-07-31T11:31:17;31.90;54.70
68354;DHT22;55274;43.060;25.618;2023-07-31T11:33:44;31.90;53.60
68354;DHT22;55274;43.060;25.618;2023-07-31T11:36:17;32.00;54.50
68354;DHT22;55274;43.060;25.618;2023-07-31T11:38:43;32.10;54.60
68354;DHT22;55274;43.060;25.618;2023-07-31T11:41:09;32.30;54.10
68354;DHT22;55274;43.060;25.618;2023-07-31T11:43:35;32.50;52.80
68354;DHT22;55274;43.060;25.618;2023-07-31T11:46:02;32.70;52.70
68354;DHT22;55274;43.060;25.618;2023-07-31T11:48:33;32.90;51.10
68354;DHT22;55274;43.060;25.618;2023-07-31T11:51:02;33.20;52.20
68354;DHT22;55274;43.060;25.618;2023-07-31T11:53:33;33.30;50.50
68354;DHT22;55274;43.060;25.618;2023-07-31T11:56:01;33.10;50.90
68354;DHT22;55274;43.060;25.618;2023-07-31T11:58:31;32.80;50.40
68354;DHT22;55274;43.060;25.618;2023-07-31T12:00:58;32.70;51.20
68354;DHT22;55274;43.060;25.618;2023-07-31T12:03:25;32.50;51.70
68354;DHT22;55274;43.060;25.618;2023-07-31T12:05:53;32.40;52.70
68354;DHT22;55274;43.060;25.618;2023-07-31T12:08:21;32.30;52.30
68354;DHT22;55274;43.060;25.618;2023-07-31T12:10:47;32.80;51.40
68354;DHT22;55274;43.060;25.618;2023-07-31T12:13:26;32.70;50.00
68354;DHT22;55274;43.060;25.618;2023-07-31T12:15:56;32.70;50.90
68354;DHT22;55274;43.060;25.618;2023-07-31T12:18:24;33.10;50.60
68354;DHT22;55274;43.060;25.618;2023-07-31T12:20:57;33.40;49.60
68354;DHT22;55274;43.060;25.618;2023-07-31T12:23:28;33.30;49.10
68354;DHT22;55274;43.060;25.618;2023-07-31T12:28:27;33.40;50.00
68354;DHT22;55274;43.060;25.618;2023-07-31T12:30:57;33.20;49.30
68354;DHT22;55274;43.060;25.618;2023-07-31T12:33:24;32.80;49.90
68354;DHT22;55274;43.060;25.618;2023-07-31T12:35:50;33.00;51.00
68354;DHT22;55274;43.060;25.618;2023-07-31T12:38:15;32.80;49.90
68354;DHT22;55274;43.060;25.618;2023-07-31T12:40:42;32.60;50.50
68354;DHT22;55274;43.060;25.618;2023-07-31T12:43:08;32.80;50.10
68354;DHT22;55274;43.060;25.618;2023-07-31T12:45:34;32.90;50.70
68354;DHT22;55274;43.060;25.618;2023-07-31T12:48:00;33.00;50.60
68354;DHT22;55274;43.060;25.618;2023-07-31T12:50:27;32.40;51.10
68354;DHT22;55274;43.060;25.618;2023-07-31T12:52:56;32.30;52.20
68354;DHT22;55274;43.060;25.618;2023-07-31T12:55:22;32.70;51.70
68354;DHT22;55274;43.060;25.618;2023-07-31T12:57:49;32.30;51.60
68354;DHT22;55274;43.060;25.618;2023-07-31T13:00:16;32.20;52.20
68354;DHT22;55274;43.060;25.618;2023-07-31T13:02:42;32.00;52.90
68354;DHT22;55274;43.060;25.618;2023-07-31T13:05:08;32.20;52.90
68354;DHT22;55274;43.060;25.618;2023-07-31T13:07:34;32.70;51.80
68354;DHT22;55274;43.060;25.618;2023-07-31T13:10:00;33.00;51.90
68354;DHT22;55274;43.060;25.618;2023-07-31T13:12:26;33.00;51.00
68354;DHT22;55274;43.060;25.618;2023-07-31T13:14:51;33.20;50.90
68354;DHT22;55274;43.060;25.618;2023-07-31T13:17:18;32.90;50.60
68354;DHT22;55274;43.060;25.618;2023-07-31T13:19:44;33.20;50.80
68354;DHT22;55274;43.060;25.618;2023-07-31T13:22:10;33.10;51.00
68354;DHT22;55274;43.060;25.618;2023-07-31T13:24:36;33.30;50.90
68354;DHT22;55274;43.060;25.618;2023-07-31T13:27:01;33.30;50.40
68354;DHT22;55274;43.060;25.618;2023-07-31T13:29:27;33.40;50.10
68354;DHT22;55274;43.060;25.618;2023-07-31T13:31:53;33.20;50.60
68354;DHT22;55274;43.060;25.618;2023-07-31T13:34:19;33.00;50.80
68354;DHT22;55274;43.060;25.618;2023-07-31T13:36:44;33.00;51.30
68354;DHT22;55274;43.060;25.618;2023-07-31T13:39:11;32.90;51.00
68354;DHT22;55274;43.060;25.618;2023-07-31T13:41:37;32.90;51.40
68354;DHT22;55274;43.060;25.618;2023-07-31T13:44:03;32.90;51.50
68354;DHT22;55274;43.060;25.618;2023-07-31T13:46:29;32.60;51.80
68354;DHT22;55274;43.060;25.618;2023-07-31T13:48:55;32.70;51.60
68354;DHT22;55274;43.060;25.618;2023-07-31T13:51:21;32.60;51.80
68354;DHT22;55274;43.060;25.618;2023-07-31T13:53:47;32.60;51.90
68354;DHT22;55274;43.060;25.618;2023-07-31T13:56:14;32.70;51.70
68354;DHT22;55274;43.060;25.618;2023-07-31T13:58:39;32.60;51.70
68354;DHT22;55274;43.060;25.618;2023-07-31T14:01:05;32.60;51.60
68354;DHT22;55274;43.060;25.618;2023-07-31T14:03:31;32.70;52.10
68354;DHT22;55274;43.060;25.618;2023-07-31T14:05:57;32.50;51.00
68354;DHT22;55274;43.060;25.618;2023-07-31T14:08:23;32.30;51.80
68354;DHT22;55274;43.060;25.618;2023-07-31T14:10:49;32.20;52.70
68354;DHT22;55274;43.060;25.618;2023-07-31T14:13:14;32.10;52.50
68354;DHT22;55274;43.060;25.618;2023-07-31T14:15:43;32.00;53.80
68354;DHT22;55274;43.060;25.618;2023-07-31T14:18:09;31.90;53.30
68354;DHT22;55274;43.060;25.618;2023-07-31T14:20:35;32.00;53.30
68354;DHT22;55274;43.060;25.618;2023-07-31T14:23:02;31.90;53.20
68354;DHT22;55274;43.060;25.618;2023-07-31T14:25:28;31.80;53.90
68354;DHT22;55274;43.060;25.618;2023-07-31T14:27:54;31.80;53.50
68354;DHT22;55274;43.060;25.618;2023-07-31T14:30:19;31.70;53.80
68354;DHT22;55274;43.060;25.618;2023-07-31T14:32:46;31.60;55.70
68354;DHT22;55274;43.060;25.618;2023-07-31T14:35:12;31.50;55.30
68354;DHT22;55274;43.060;25.618;2023-07-31T14:37:39;31.50;55.40
68354;DHT22;55274;43.060;25.618;2023-07-31T14:40:06;31.50;55.20
68354;DHT22;55274;43.060;25.618;2023-07-31T14:42:32;31.40;56.20
68354;DHT22;55274;43.060;25.618;2023-07-31T14:44:57;31.40;55.40
68354;DHT22;55274;43.060;25.618;2023-07-31T14:47:23;31.30;55.40
68354;DHT22;55274;43.060;25.618;2023-07-31T14:49:49;31.20;56.10
68354;DHT22;55274;43.060;25.618;2023-07-31T14:52:14;31.20;55.90
68354;DHT22;55274;43.060;25.618;2023-07-31T14:54:41;31.10;57.80
68354;DHT22;55274;43.060;25.618;2023-07-31T14:57:08;31.00;60.70
68354;DHT22;55274;43.060;25.618;2023-07-31T14:59:34;30.90;63.20
68354;DHT22;55274;43.060;25.618;2023-07-31T15:01:59;30.60;65.90
68354;DHT22;55274;43.060;25.618;2023-07-31T15:04:25;30.10;69.60
68354;DHT22;55274;43.060;25.618;2023-07-31T15:06:52;29.60;72.10
68354;DHT22;55274;43.060;25.618;2023-07-31T15:09:18;29.40;72.70
68354;DHT22;55274;43.060;25.618;2023-07-31T15:11:44;29.20;73.90
68354;DHT22;55274;43.060;25.618;2023-07-31T15:14:09;29.00;74.40
68354;DHT22;55274;43.060;25.618;2023-07-31T15:16:35;28.70;76.40
68354;DHT22;55274;43.060;25.618;2023-07-31T15:19:01;28.60;73.00
68354;DHT22;55274;43.060;25.618;2023-07-31T15:21:27;28.50;76.00
68354;DHT22;55274;43.060;25.618;2023-07-31T15:23:53;28.40;80.10
68354;DHT22;55274;43.060;25.618;2023-07-31T15:26:18;28.10;77.30
68354;DHT22;55274;43.060;25.618;2023-07-31T15:28:49;27.80;75.50